Ramona (236) Station Data

Red Flag Warning: No
Fire Weather Zone: 250
SDGE Region: Ramona
Lat/Lon: 33.073/-116.858

Observations

Time Wind Speed/Gust Temp(F) RH Fuel Moist Fuel Temp(F) Dewpt(F) Tmax(F) Tmin(F) Accum Precip 10-min Precip SL Press(mb)
6/22 4:50am 321 0 G 1 59° 100% - - 59° 66.7° 58.4° - - -
6/22 4:40am 338 1 G 2 59° 100% - - 59° 66.7° 58.4° - - -
6/22 4:30am 332 1 G 2 59° 100% - - 59° 66.7° 58.6° - - -
6/22 4:20am 18 0 G 1 59° 100% - - 59° 66.7° 58.7° - - -
6/22 4:10am 18 0 G 1 59° 100% - - 59° 66.7° 59° - - -
6/22 4:00am 332 0 G 1 59° 100% - - 59° 66.7° 59.2° - - -
6/22 3:50am 322 1 G 1 60° 100% - - 60° 66.7° 59.3° - - -
6/22 3:40am 321 1 G 2 60° 100% - - 60° 66.7° 59.3° - - -
6/22 3:30am 326 0 G 2 60° 100% - - 60° 66.7° 59.8° - - -
6/22 3:20am 0 0 G 0 61° 100% - - 61° 66.7° 60.2° - - -
6/22 3:10am 217 0 G 1 61° 100% - - 61° 66.7° 60.4° - - -
6/22 3:00am 217 0 G 1 61° 100% - - 61° 66.7° 60.5° - - -
6/22 2:50am 244 1 G 1 61° 100% - - 61° 66.7° 60.8° - - -
6/22 2:40am 323 1 G 2 62° 100% - - 62° 66.7° 61.3° - - -
6/22 2:30am 353 0 G 1 62° 100% - - 62° 66.7° 61.8° - - -
6/22 2:20am 0 0 G 0 62° 100% - - 62° 66.7° 62.1° - - -
6/22 2:10am 321 0 G 1 63° 100% - - 63° 66.7° 62.2° - - -
6/22 2:00am 324 1 G 2 63° 96% - - 62° 66.7° 62.8° - - -
6/22 1:50am 27 0 G 1 64° 97% - - 63° 66.7° 63.3° - - -
6/22 1:40am 346 0 G 1 64° 85% - - 59° 66.7° 63.3° - - -
6/22 1:30am 339 1 G 1 64° 83% - - 59° 66.7° 63.6° - - -
6/22 1:20am 342 0 G 1 64° 82% - - 59° 66.7° 64.2° - - -
6/22 1:10am 344 0 G 2 65° 78% - - 58° 66.7° 64.4° - - -
6/22 1:00am 329 0 G 1 65° 77% - - 58° 66.7° 65° - - -
6/22 12:50am 354 1 G 2 66° 75% - - 58° 66.7° 65.3° - - -
6/22 12:40am 338 1 G 2 66° 75% - - 58° 66.7° 65.3° - - -
6/22 12:30am 24 1 G 2 66° 76% - - 58° 66.7° 65.3° - - -
6/22 12:20am 0 0 G 0 66° 73% - - 57° 66.7° 65.3° - - -
6/22 12:10am 344 0 G 2 66° 72% - - 57° 66.7° 65.8° - - -
6/22 12:00am 339 1 G 2 67° 71% - - 57° 96.8° 63.6° - - -
6/21 11:50pm 354 0 G 1 67° 70% - - 57° 96.8° 63.6° - - -
6/21 11:40pm 341 1 G 2 67° 69% - - 57° 96.8° 63.6° - - -
6/21 11:30pm 350 1 G 2 67° 68% - - 57° 96.8° 63.6° - - -
6/21 11:20pm 347 0 G 2 68° 67% - - 57° 96.8° 63.6° - - -
6/21 11:10pm 332 0 G 1 68° 67% - - 57° 96.8° 63.6° - - -
6/21 11:00pm 286 0 G 1 68° 66% - - 56° 96.8° 63.6° - - -
6/21 10:50pm 285 0 G 1 69° 65% - - 56° 96.8° 63.6° - - -
6/21 10:40pm 335 1 G 2 69° 63% - - 56° 96.8° 63.6° - - -
6/21 10:30pm 46 1 G 3 70° 63% - - 57° 96.8° 63.6° - - -
6/21 10:20pm 14 1 G 2 70° 62% - - 57° 96.8° 63.6° - - -
6/21 10:10pm 0 0 G 0 70° 62% - - 56° 96.8° 63.6° - - -
6/21 10:00pm 0 0 G 0 71° 60% - - 56° 96.8° 63.6° - - -
6/21 9:50pm 0 0 G 0 72° 58% - - 56° 96.8° 63.6° - - -
6/21 9:40pm 312 0 G 2 73° 57% - - 56° 96.8° 63.6° - - -
6/21 9:30pm 349 1 G 2 73° 56% - - 56° 96.8° 63.6° - - -
6/21 9:20pm 15 1 G 2 74° 55% - - 57° 96.8° 63.6° - - -
6/21 9:10pm 32 0 G 1 74° 55% - - 56° 96.8° 63.6° - - -
6/21 9:00pm 190 1 G 1 74° 53% - - 56° 96.8° 63.6° - - -
6/21 8:50pm 179 0 G 1 75° 52% - - 56° 96.8° 63.6° - - -
6/21 8:40pm 309 0 G 2 76° 50% - - 56° 96.8° 63.6° - - -
6/21 8:30pm 320 0 G 2 76° 49% - - 56° 96.8° 63.6° - - -
6/21 8:20pm 251 1 G 2 77° 47% - - 56° 96.8° 63.6° - - -
6/21 8:10pm 259 1 G 2 78° 45% - - 56° 96.8° 63.6° - - -
6/21 8:00pm 271 1 G 2 79° 44% - - 55° 96.8° 63.6° - - -
6/21 7:50pm 300 2 G 3 80° 42% - - 55° 96.8° 63.6° - - -
6/21 7:40pm 278 2 G 4 82° 39% - - 55° 96.8° 63.6° - - -
6/21 7:30pm 259 2 G 5 83° 37% - - 54° 96.8° 63.6° - - -
6/21 7:20pm 278 2 G 4 84° 36% - - 54° 96.8° 63.6° - - -
6/21 7:10pm 287 2 G 4 85° 34% - - 53° 96.8° 63.6° - - -
6/21 7:00pm 252 2 G 4 85° 33% - - 53° 96.8° 63.6° - - -
6/21 6:50pm 248 3 G 5 85° 33% - - 53° 96.8° 63.6° - - -
6/21 6:40pm 257 4 G 6 85° 33% - - 53° 96.8° 63.6° - - -
6/21 6:30pm 279 3 G 7 85° 32% - - 52° 96.8° 63.6° - - -
6/21 6:20pm 291 6 G 9 85° 32% - - 52° 96.8° 63.6° - - -
6/21 6:10pm 294 6 G 10 86° 31% - - 52° 96.8° 63.6° - - -
6/21 6:00pm 266 4 G 9 87° 29% - - 51° 96.8° 63.6° - - -
6/21 5:50pm 289 5 G 8 88° 29% - - 51° 96.8° 63.6° - - -
6/21 5:40pm 250 3 G 7 89° 27% - - 51° 96.8° 63.6° - - -
6/21 5:30pm 282 6 G 10 89° 27% - - 51° 96.8° 63.6° - - -
6/21 5:20pm 272 5 G 9 89° 26% - - 50° 96.8° 63.6° - - -
6/21 5:10pm 260 6 G 10 90° 25% - - 49° 96.8° 63.6° - - -
6/21 5:00pm 271 6 G 9 90° 24% - - 48° 96.8° 63.6° - - -
6/21 4:50pm 275 6 G 10 91° 23% - - 48° 96.8° 63.6° - - -
6/21 4:40pm 278 6 G 9 90° 24% - - 48° 96.8° 63.6° - - -
6/21 4:30pm 261 6 G 10 90° 24% - - 49° 96.8° 63.6° - - -
6/21 4:20pm 275 6 G 11 90° 26% - - 50° 96.8° 63.6° - - -
6/21 4:10pm 283 7 G 12 90° 25% - - 50° 96.8° 63.6° - - -
6/21 4:00pm 281 6 G 10 90° 25% - - 50° 96.8° 63.6° - - -
6/21 3:50pm 289 8 G 13 90° 25% - - 50° 96.8° 63.6° - - -
6/21 3:40pm 293 8 G 14 91° 24% - - 49° 96.8° 63.6° - - -
6/21 3:30pm 294 8 G 13 91° 25% - - 50° 96.8° 63.6° - - -
6/21 3:20pm 290 8 G 13 92° 22% - - 48° 96.8° 63.6° - - -
6/21 3:10pm 274 6 G 13 93° 20% - - 46° 96.8° 63.6° - - -
6/21 3:00pm 268 7 G 12 94° 19% - - 46° 96.8° 63.6° - - -
6/21 2:50pm 265 6 G 11 94° 19% - - 45° 96.8° 63.6° - - -
6/21 2:40pm 260 7 G 12 94° 19% - - 45° 96.8° 63.6° - - -
6/21 2:30pm 266 7 G 12 94° 19% - - 45° 96.8° 63.6° - - -
6/21 2:20pm 271 7 G 13 94° 20% - - 46° 96.8° 63.6° - - -
6/21 2:10pm 286 8 G 13 93° 20% - - 47° 96.8° 63.6° - - -
6/21 2:00pm 290 8 G 14 95° 19% - - 46° 96.8° 63.6° - - -
6/21 1:50pm 282 7 G 13 95° 18% - - 45° 96.8° 63.6° - - -
6/21 1:40pm 272 6 G 10 96° 17% - - 44° 96.8° 63.6° - - -
6/21 1:30pm 289 7 G 11 95° 18% - - 45° 96.8° 63.6° - - -
6/21 1:20pm 286 7 G 11 95° 18% - - 45° 96.8° 63.6° - - -
6/21 1:10pm 300 8 G 13 95° 17% - - 44° 96.8° 63.6° - - -
6/21 1:00pm 297 7 G 10 96° 18% - - 45° 96.8° 63.6° - - -
6/21 12:50pm 282 6 G 11 96° 18% - - 46° 96.8° 63.6° - - -
6/21 12:40pm 278 5 G 9 96° 18% - - 46° 96.8° 63.6° - - -
6/21 12:30pm 278 6 G 10 95° 18% - - 45° 96.8° 63.6° - - -
6/21 12:20pm 260 6 G 10 95° 17% - - 44° 96.8° 63.6° - - -
6/21 12:10pm 267 6 G 11 95° 19% - - 46° 96.8° 63.6° - - -
6/21 12:00pm 261 6 G 11 95° 19% - - 46° 96.8° 63.6° - - -
6/21 11:50am 281 6 G 9 95° 20% - - 47° 96.8° 63.6° - - -
6/21 11:40am 281 6 G 10 94° 20% - - 47° 96.8° 63.6° - - -
6/21 11:30am 246 6 G 10 95° 17% - - 44° 96.8° 63.6° - - -
6/21 11:20am 247 5 G 8 96° 16% - - 42° 96.8° 63.6° - - -
6/21 11:10am 256 5 G 8 96° 15% - - 41° 96.8° 63.6° - - -
6/21 11:00am 236 3 G 6 96° 13% - - 38° 96.8° 63.6° - - -
6/21 10:50am 252 4 G 7 95° 14% - - 39° 96.5° 63.6° - - -
6/21 10:40am 190 4 G 7 95° 14% - - 37° 95.5° 63.6° - - -
6/21 10:30am 222 3 G 6 94° 12% - - 34° 95.1° 63.6° - - -
6/21 10:20am 148 3 G 6 93° 14% - - 36° 93.7° 63.6° - - -
6/21 10:10am 172 3 G 6 92° 15% - - 37° 92.3° 63.6° - - -
6/21 10:00am 177 3 G 6 91° 16% - - 39° 91.9° 63.6° - - -
6/21 9:50am 166 3 G 7 91° 17% - - 39° 91.2° 63.6° - - -
6/21 9:40am 216 2 G 5 90° 17% - - 40° 91.2° 63.6° - - -
6/21 9:30am 194 2 G 5 90° 19% - - 42° 89.8° 63.6° - - -
6/21 9:20am 213 2 G 4 89° 21% - - 44° 89.7° 63.6° - - -
6/21 9:10am 125 1 G 4 88° 22% - - 45° 89.7° 63.6° - - -
6/21 9:00am 221 1 G 3 88° 22% - - 44° 88.1° 63.6° - - -
6/21 8:50am 131 1 G 3 86° 24% - - 45° 86.5° 63.6° - - -
6/21 8:40am 156 1 G 2 86° 24% - - 45° 86.5° 63.6° - - -
6/21 8:30am 92 0 G 1 86° 25% - - 46° 86.5° 63.6° - - -
6/21 8:20am 130 0 G 1 83° 28% - - 47° 84.3° 63.6° - - -
6/21 8:10am 121 0 G 1 81° 30% - - 47° 82.3° 63.6° - - -
6/21 8:00am 170 1 G 1 79° 35% - - 48° 79.4° 63.6° - - -
6/21 7:50am 171 0 G 1 78° 37% - - 49° 78.1° 63.6° - - -
6/21 7:40am 0 0 G 0 76° 40% - - 50° 77.4° 63.6° - - -
6/21 7:30am 116 0 G 1 74° 45% - - 51° 75.1° 63.6° - - -
6/21 7:20am 120 0 G 1 72° 49% - - 52° 73° 63.6° - - -
6/21 7:10am 148 0 G 1 70° 53% - - 52° 71.3° 63.6° - - -
6/21 7:00am 0 0 G 0 69° 55% - - 52° 70.5° 63.6° - - -
6/21 6:50am 312 0 G 1 67° 56% - - 51° 70.5° 63.6° - - -
6/21 6:40am 325 1 G 2 66° 58% - - 51° 70.5° 63.6° - - -
6/21 6:30am 339 1 G 1 65° 59% - - 50° 70.5° 63.6° - - -
6/21 6:20am 336 1 G 2 65° 59% - - 50° 70.5° 63.6° - - -
6/21 6:10am 68 0 G 2 65° 59% - - 50° 70.5° 63.6° - - -
6/21 6:00am 14 1 G 3 64° 61% - - 50° 70.5° 63.6° - - -
6/21 5:50am 332 3 G 4 64° 60% - - 50° 70.5° 63.6° - - -
6/21 5:40am 356 1 G 2 65° 58% - - 50° 70.5° 63.6° - - -
6/21 5:30am 351 1 G 2 64° 59% - - 50° 70.5° 63.6° - - -
6/21 5:20am 329 1 G 3 64° 61% - - 50° 70.5° 63.6° - - -
6/21 5:10am 329 1 G 3 65° 60% - - 50° 70.5° 64° - - -
6/21 5:00am 359 1 G 2 64° 60% - - 50° 70.5° 64° - - -
6/21 4:50am 347 0 G 2 64° 61% - - 51° 70.5° 64.1° - - -
6/21 4:40am 320 1 G 3 65° 60% - - 50° 70.5° 64.1° - - -
6/21 4:30am 358 0 G 1 65° 60% - - 51° 70.5° 64.8° - - -
6/21 4:20am 336 2 G 2 65° 61% - - 51° 70.5° 64.8° - - -
6/21 4:10am 351 1 G 2 65° 61% - - 51° 70.5° 64.8° - - -
6/21 4:00am 338 1 G 3 65° 61% - - 51° 70.5° 64.8° - - -
6/21 3:50am 18 1 G 2 66° 60% - - 52° 70.5° 64.8° - - -
6/21 3:40am 343 1 G 2 65° 62% - - 52° 70.5° 64.8° - - -
6/21 3:30am 320 0 G 1 66° 62% - - 52° 70.5° 65.3° - - -
6/21 3:20am 349 0 G 1 66° 60% - - 52° 70.5° 65.5° - - -
6/21 3:10am 354 1 G 2 66° 60% - - 52° 70.5° 65.8° - - -
6/21 3:00am 350 1 G 2 66° 61% - - 52° 70.5° 65.8° - - -
6/21 2:50am 321 1 G 2 67° 61% - - 53° 70.5° 66.4° - - -
6/21 2:40am 7 0 G 2 67° 61% - - 53° 70.5° 66.7° - - -
6/21 2:30am 330 2 G 3 67° 61% - - 53° 70.5° 66.7° - - -
6/21 2:20am 333 1 G 3 68° 60% - - 53° 70.5° 67.1° - - -
6/21 2:10am 342 1 G 1 68° 59% - - 53° 70.5° 67.2° - - -
6/21 2:00am 337 1 G 2 68° 59% - - 53° 70.5° 67.3° - - -
6/21 1:50am 36 0 G 1 68° 60% - - 53° 70.5° 67.3° - - -
6/21 1:40am 23 0 G 2 68° 59% - - 53° 70.5° 67.3° - - -
6/21 1:30am 352 0 G 2 68° 59% - - 53° 70.5° 67.6° - - -
6/21 1:20am 330 1 G 2 68° 58% - - 53° 70.5° 68.2° - - -
6/21 1:10am 336 1 G 2 69° 57% - - 53° 70.5° 68.6° - - -
6/21 1:00am 11 1 G 2 69° 56% - - 53° 70.5° 68.6° - - -
6/21 12:50am 2 1 G 2 69° 57% - - 53° 70.5° 68.6° - - -
6/21 12:40am 344 1 G 2 70° 55% - - 53° 70.5° 69.1° - - -
6/21 12:30am 351 1 G 3 70° 55% - - 53° 70.5° 69.5° - - -
6/21 12:20am 350 1 G 2 70° 56% - - 53° 70.5° 69.5° - - -
6/21 12:10am 321 1 G 2 70° 54% - - 53° 70.5° 69.5° - - -
6/21 12:00am 334 1 G 2 71° 51% - - 52° 98.7° 63.3° - - -
6/20 11:50pm 62 1 G 2 72° 50% - - 52° 98.7° 63.3° - - -
6/20 11:40pm 353 1 G 2 71° 51% - - 52° 98.7° 63.3° - - -
6/20 11:30pm 350 0 G 1 72° 50% - - 52° 98.7° 63.3° - - -
6/20 11:20pm 340 1 G 1 72° 48% - - 52° 98.7° 63.3° - - -
6/20 11:10pm 351 1 G 2 72° 48% - - 51° 98.7° 63.3° - - -
6/20 11:00pm 334 1 G 2 73° 46% - - 51° 98.7° 63.3° - - -
6/20 10:50pm 2 0 G 1 73° 43% - - 50° 98.7° 63.3° - - -
6/20 10:40pm 353 0 G 2 74° 43% - - 50° 98.7° 63.3° - - -
6/20 10:30pm 358 1 G 2 74° 43% - - 50° 98.7° 63.3° - - -
6/20 10:20pm 0 0 G 0 74° 42% - - 49° 98.7° 63.3° - - -
6/20 10:10pm 352 0 G 2 74° 40% - - 49° 98.7° 63.3° - - -
6/20 10:00pm 321 1 G 3 75° 38% - - 48° 98.7° 63.3° - - -
6/20 9:50pm 329 2 G 4 76° 36% - - 47° 98.7° 63.3° - - -
6/20 9:40pm 9 1 G 2 77° 36% - - 48° 98.7° 63.3° - - -
6/20 9:30pm 321 1 G 2 76° 37% - - 48° 98.7° 63.3° - - -
6/20 9:20pm 323 2 G 3 77° 35% - - 47° 98.7° 63.3° - - -
6/20 9:10pm 336 2 G 3 79° 34% - - 48° 98.7° 63.3° - - -
6/20 9:00pm 355 1 G 2 78° 35% - - 48° 98.7° 63.3° - - -
6/20 8:50pm 32 1 G 2 80° 33% - - 48° 98.7° 63.3° - - -
6/20 8:40pm 63 2 G 3 80° 33% - - 48° 98.7° 63.3° - - -
6/20 8:30pm 59 1 G 2 82° 29% - - 47° 98.7° 63.3° - - -
6/20 8:20pm 67 1 G 2 84° 27% - - 47° 98.7° 63.3° - - -
6/20 8:10pm 43 1 G 2 84° 27% - - 47° 98.7° 63.3° - - -
6/20 8:00pm 38 0 G 1 86° 25% - - 46° 98.7° 63.3° - - -
6/20 7:50pm 0 0 G 0 88° 23% - - 45° 98.7° 63.3° - - -
6/20 7:40pm 281 0 G 1 89° 22% - - 45° 98.7° 63.3° - - -
6/20 7:30pm 263 2 G 3 89° 22% - - 45° 98.7° 63.3° - - -
6/20 7:20pm 220 1 G 3 89° 21% - - 45° 98.7° 63.3° - - -
6/20 7:10pm 259 2 G 7 89° 21% - - 44° 98.7° 63.3° - - -
6/20 7:00pm 261 4 G 8 89° 21% - - 45° 98.7° 63.3° - - -
6/20 6:50pm 272 5 G 7 90° 21% - - 45° 98.7° 63.3° - - -
6/20 6:40pm 251 5 G 7 90° 21% - - 45° 98.7° 63.3° - - -
6/20 6:30pm 260 4 G 7 91° 21% - - 45° 98.7° 63.3° - - -
6/20 6:20pm 212 2 G 6 91° 20% - - 45° 98.7° 63.3° - - -
6/20 6:10pm 182 2 G 6 91° 20% - - 44° 98.7° 63.3° - - -
6/20 6:00pm 202 2 G 4 92° 20% - - 45° 98.7° 63.3° - - -